createdAt,value
2022-09-15T00:01:34.374Z,86.16
2022-09-15T00:04:03.132Z,86.09
2022-09-15T00:06:32.451Z,86.53
2022-09-15T00:09:00.343Z,86.25
2022-09-15T00:11:30.241Z,86.42
2022-09-15T00:14:00.273Z,86.08
2022-09-15T00:16:30.866Z,86.15
2022-09-15T00:18:59.247Z,86.17
2022-09-15T00:21:29.208Z,86.03
2022-09-15T00:23:58.500Z,86.13
2022-09-15T00:26:28.068Z,86.12
2022-09-15T00:28:57.305Z,86.35
2022-09-15T00:31:27.041Z,86.33
2022-09-15T00:33:58.221Z,86.31
2022-09-15T00:36:27.206Z,86.25
2022-09-15T00:38:55.633Z,86.16
2022-09-15T00:41:25.415Z,86.38
2022-09-15T00:43:55.302Z,86.28
2022-09-15T00:46:25.107Z,86.65
2022-09-15T00:48:59.436Z,86.26
2022-09-15T00:51:34.228Z,87.10
2022-09-15T00:54:03.337Z,87.15
2022-09-15T00:56:34.934Z,87.29
2022-09-15T00:59:05.073Z,87.43
2022-09-15T01:01:33.569Z,87.94
2022-09-15T01:04:01.634Z,88.05
2022-09-15T01:06:34.968Z,88.52
2022-09-15T01:09:11.862Z,87.67
2022-09-15T01:11:41.939Z,88.05
2022-09-15T01:14:09.905Z,88.10
2022-09-15T01:16:50.837Z,88.01
2022-09-15T01:19:50.016Z,88.32
2022-09-15T01:22:30.893Z,87.71
2022-09-15T01:25:08.587Z,87.87
2022-09-15T01:28:14.810Z,88.10
2022-09-15T01:30:45.824Z,87.47
2022-09-15T01:33:23.421Z,87.67
2022-09-15T01:35:55.964Z,87.10
2022-09-15T01:38:29.936Z,87.15
2022-09-15T01:41:01.669Z,87.22
2022-09-15T01:43:30.683Z,86.94
2022-09-15T01:46:01.314Z,87.07
2022-09-15T01:48:29.877Z,87.58
2022-09-15T01:51:02.130Z,87.50
2022-09-15T01:53:30.289Z,87.35
2022-09-15T01:56:01.951Z,86.92
2022-09-15T01:58:29.777Z,87.25
2022-09-15T02:01:02.128Z,87.24
2022-09-15T02:03:33.221Z,87.00
2022-09-15T02:06:04.492Z,87.17
2022-09-15T02:08:38.228Z,87.20
2022-09-15T02:11:16.849Z,87.45
2022-09-15T02:13:53.057Z,87.18
2022-09-15T02:16:24.381Z,86.94
2022-09-15T02:19:03.180Z,86.84
2022-09-15T02:21:36.386Z,86.67
2022-09-15T02:24:10.736Z,86.40
2022-09-15T02:26:39.927Z,86.23
2022-09-15T02:29:10.216Z,86.29
2022-09-15T02:31:41.258Z,86.06
2022-09-15T02:34:12.385Z,85.81
2022-09-15T02:36:42.062Z,86.25
2022-09-15T02:39:12.786Z,86.12
2022-09-15T02:41:41.692Z,86.33
2022-09-15T02:44:10.288Z,86.57
2022-09-15T02:46:40.317Z,86.68
2022-09-15T02:49:08.713Z,85.73
2022-09-15T02:51:37.945Z,86.23
2022-09-15T02:54:06.715Z,85.68
2022-09-15T02:56:35.134Z,86.34
2022-09-15T02:59:03.817Z,85.79
2022-09-15T03:01:35.137Z,85.79
2022-09-15T03:04:05.903Z,85.82
2022-09-15T03:06:35.554Z,85.62
2022-09-15T03:09:05.950Z,85.13
2022-09-15T03:11:34.212Z,85.13
2022-09-15T03:14:03.657Z,85.69
2022-09-15T03:16:34.678Z,84.88
2022-09-15T03:19:04.195Z,85.18
2022-09-15T03:21:32.011Z,84.92
2022-09-15T03:24:00.613Z,85.16
2022-09-15T03:26:28.592Z,85.25
2022-09-15T03:28:56.550Z,85.24
2022-09-15T03:31:24.534Z,85.29
2022-09-15T03:33:54.781Z,85.30
2022-09-15T03:36:24.292Z,85.41
2022-09-15T03:38:52.754Z,85.05
2022-09-15T03:41:21.239Z,85.24
2022-09-15T03:43:49.375Z,85.14
2022-09-15T03:46:18.012Z,85.32
2022-09-15T03:48:47.506Z,85.36
2022-09-15T03:51:15.655Z,85.63
2022-09-15T03:53:45.070Z,85.31
2022-09-15T03:56:15.573Z,85.38
2022-09-15T03:58:43.428Z,85.15
2022-09-15T04:01:12.776Z,84.49
2022-09-15T04:03:46.444Z,85.16
2022-09-15T04:06:17.097Z,84.92
2022-09-15T04:08:46.464Z,84.73
2022-09-15T04:11:14.944Z,84.43
2022-09-15T04:13:43.516Z,84.58
2022-09-15T04:16:13.915Z,84.87
2022-09-15T04:18:42.171Z,84.23
2022-09-15T04:21:13.187Z,84.35
2022-09-15T04:23:41.308Z,84.62
2022-09-15T04:26:14.804Z,84.74
2022-09-15T04:28:42.752Z,84.53
2022-09-15T04:31:12.220Z,83.99
2022-09-15T04:33:41.524Z,84.53
2022-09-15T04:36:12.059Z,84.50
2022-09-15T04:38:40.077Z,84.15
2022-09-15T04:41:08.261Z,84.22
2022-09-15T04:43:37.860Z,84.43
2022-09-15T04:46:06.429Z,83.69
2022-09-15T04:48:34.806Z,84.07
2022-09-15T04:51:03.222Z,84.04
2022-09-15T04:53:31.611Z,83.60
2022-09-15T04:56:06.610Z,84.38
2022-09-15T04:58:38.677Z,83.97
2022-09-15T05:01:10.811Z,84.48
2022-09-15T05:03:39.269Z,83.96
2022-09-15T05:06:09.218Z,84.79
2022-09-15T05:08:39.449Z,84.51
2022-09-15T05:11:08.681Z,84.87
2022-09-15T05:13:38.927Z,85.29
2022-09-15T05:16:08.166Z,85.52
2022-09-15T05:18:36.406Z,86.09
2022-09-15T05:21:05.087Z,86.18
2022-09-15T05:23:33.148Z,86.49
2022-09-15T05:26:02.496Z,86.66
2022-09-15T05:28:30.565Z,86.74
2022-09-15T05:30:59.851Z,86.41
2022-09-15T05:33:27.712Z,86.79
2022-09-15T05:35:57.093Z,86.82
2022-09-15T05:38:25.919Z,86.94
2022-09-15T05:40:54.122Z,87.16
2022-09-15T05:43:21.958Z,87.29
2022-09-15T05:45:56.039Z,86.86
2022-09-15T05:48:25.660Z,87.35
2022-09-15T05:50:54.815Z,87.33
2022-09-15T05:53:23.132Z,87.63
2022-09-15T05:55:55.147Z,87.78
2022-09-15T05:58:24.695Z,87.66
2022-09-15T06:00:53.353Z,87.25
2022-09-15T06:03:22.047Z,87.00
2022-09-15T06:05:51.728Z,86.77
2022-09-15T06:08:19.968Z,87.25
2022-09-15T06:10:47.949Z,86.23
2022-09-15T06:13:16.041Z,86.97
2022-09-15T06:15:44.071Z,86.80
2022-09-15T06:18:11.919Z,87.35
2022-09-15T06:20:39.901Z,87.40
2022-09-15T06:23:09.111Z,87.41
2022-09-15T06:25:37.090Z,87.33
2022-09-15T06:28:05.270Z,87.87
2022-09-15T06:30:33.270Z,88.40
2022-09-15T06:33:01.036Z,88.42
2022-09-15T06:35:29.004Z,88.74
2022-09-15T06:37:56.785Z,88.42
2022-09-15T06:40:26.060Z,88.90
2022-09-15T06:42:57.233Z,88.73
2022-09-15T06:45:25.086Z,88.52
2022-09-15T06:48:13.361Z,88.61
2022-09-15T06:50:41.413Z,87.79
2022-09-15T06:53:10.465Z,88.22
2022-09-15T06:55:39.654Z,88.58
2022-09-15T06:58:08.328Z,89.37
2022-09-15T07:00:36.309Z,89.31
2022-09-15T07:03:04.248Z,89.88
2022-09-15T07:05:32.144Z,89.85
2022-09-15T07:07:59.980Z,89.65
2022-09-15T07:10:27.911Z,90.00
2022-09-15T07:12:58.979Z,89.64
2022-09-15T07:15:27.476Z,90.29
2022-09-15T07:17:55.777Z,90.49
2022-09-15T07:20:23.901Z,90.33
2022-09-15T07:22:52.204Z,90.64
2022-09-15T07:25:20.052Z,90.80
2022-09-15T07:27:47.922Z,90.93
2022-09-15T07:30:17.376Z,90.97
2022-09-15T07:32:45.642Z,90.95
2022-09-15T07:35:13.431Z,91.20
2022-09-15T07:37:41.247Z,90.94
2022-09-15T07:40:11.091Z,91.05
2022-09-15T07:42:39.144Z,91.30
2022-09-15T07:45:08.311Z,91.14
2022-09-15T07:47:37.592Z,91.00
2022-09-15T07:50:06.564Z,90.23
2022-09-15T07:52:34.469Z,91.05
2022-09-15T07:55:02.356Z,91.04
2022-09-15T07:57:30.235Z,91.05
2022-09-15T07:59:58.325Z,91.07
2022-09-15T08:02:26.229Z,90.54
2022-09-15T08:04:56.600Z,90.55
2022-09-15T08:07:24.551Z,90.98
2022-09-15T08:09:52.522Z,90.80
2022-09-15T08:12:20.365Z,90.79
2022-09-15T08:14:48.543Z,90.35
2022-09-15T08:17:16.371Z,90.10
2022-09-15T08:19:44.262Z,90.42
2022-09-15T08:22:14.064Z,89.82
2022-09-15T08:24:41.919Z,90.23
2022-09-15T08:27:10.707Z,89.62
2022-09-15T08:29:38.608Z,90.47
2022-09-15T08:32:06.512Z,90.86
2022-09-15T08:34:34.319Z,90.81
2022-09-15T08:37:03.544Z,90.62
2022-09-15T08:39:32.836Z,90.50
2022-09-15T08:42:01.914Z,91.25
2022-09-15T08:44:36.357Z,91.22
2022-09-15T08:47:07.148Z,90.84
2022-09-15T08:49:51.688Z,91.06
2022-09-15T08:52:23.956Z,91.11
2022-09-15T08:54:55.127Z,91.56
2022-09-15T08:57:25.876Z,91.41
2022-09-15T08:59:55.024Z,91.56
2022-09-15T09:03:09.817Z,91.49
2022-09-15T09:05:46.811Z,91.36
2022-09-15T09:08:40.917Z,91.68
2022-09-15T09:11:18.662Z,91.46
2022-09-15T09:13:49.265Z,91.93
2022-09-15T09:16:36.367Z,91.80
2022-09-15T09:19:20.172Z,91.91
2022-09-15T09:21:49.763Z,92.24
2022-09-15T09:24:19.055Z,92.28
2022-09-15T09:26:51.578Z,92.11
2022-09-15T09:29:21.140Z,91.93
2022-09-15T09:31:50.885Z,92.29
2022-09-15T09:34:23.370Z,92.08
2022-09-15T09:36:54.385Z,91.52
2022-09-15T09:39:22.766Z,90.68
2022-09-15T09:41:52.388Z,91.37
2022-09-15T09:44:20.535Z,91.43
2022-09-15T09:46:49.300Z,91.86
2022-09-15T09:49:20.382Z,90.52
2022-09-15T09:51:53.209Z,90.78
2022-09-15T09:54:22.425Z,91.94
2022-09-15T09:56:53.348Z,92.80
2022-09-15T09:59:41.234Z,92.24
2022-09-15T10:02:19.579Z,92.55
2022-09-15T10:04:49.185Z,92.07
2022-09-15T10:07:18.497Z,92.34
2022-09-15T10:09:54.800Z,92.58
2022-09-15T10:12:28.285Z,92.27
2022-09-15T10:14:58.034Z,92.58
2022-09-15T10:17:29.094Z,93.05
2022-09-15T10:19:58.388Z,91.69
2022-09-15T10:22:29.914Z,92.90
2022-09-15T10:24:58.096Z,93.37
2022-09-15T10:27:32.493Z,93.44
2022-09-15T10:30:01.649Z,92.84
2022-09-15T10:32:31.033Z,92.96
2022-09-15T10:35:18.676Z,92.36
2022-09-15T10:37:57.383Z,92.43
2022-09-15T10:40:35.272Z,92.94
2022-09-15T10:43:20.429Z,93.58
2022-09-15T10:45:50.200Z,93.17
2022-09-15T10:48:27.858Z,93.24
2022-09-15T10:50:59.175Z,93.83
2022-09-15T10:53:39.296Z,93.80
2022-09-15T10:56:16.761Z,93.98
2022-09-15T10:58:57.163Z,93.87
2022-09-15T11:01:43.157Z,93.45
2022-09-15T11:04:37.502Z,93.20
2022-09-15T11:07:11.686Z,93.03
2022-09-15T11:09:46.511Z,91.62
2022-09-15T11:12:29.403Z,91.77
2022-09-15T11:15:20.910Z,90.89
2022-09-15T11:18:01.425Z,89.72
2022-09-15T11:20:40.362Z,90.60
2022-09-15T11:23:15.056Z,90.63
2022-09-15T11:25:45.330Z,90.03
2022-09-15T11:28:17.005Z,90.58
2022-09-15T11:30:53.207Z,90.71
2022-09-15T11:33:24.089Z,91.03
2022-09-15T11:35:54.949Z,91.33
2022-09-15T11:38:40.558Z,91.58
2022-09-15T11:41:21.264Z,91.19
2022-09-15T11:43:57.936Z,91.01
2022-09-15T11:46:40.463Z,91.43
2022-09-15T11:49:14.513Z,91.03
2022-09-15T11:51:46.093Z,91.88
2022-09-15T11:54:18.440Z,92.32
2022-09-15T11:56:48.297Z,92.72
2022-09-15T11:59:22.129Z,91.49
2022-09-15T12:01:55.801Z,91.20
2022-09-15T12:04:28.457Z,91.63
2022-09-15T12:09:27.526Z,92.30
2022-09-15T12:11:58.501Z,91.55
2022-09-15T12:14:32.746Z,90.30
2022-09-15T12:17:02.606Z,90.01
2022-09-15T12:19:48.199Z,90.24
2022-09-15T12:22:20.469Z,89.70
2022-09-15T12:24:57.823Z,89.35
2022-09-15T12:27:28.401Z,89.19
2022-09-15T12:29:58.088Z,90.07
2022-09-15T12:32:29.061Z,88.34
2022-09-15T12:35:02.806Z,88.79
2022-09-15T12:37:47.865Z,88.08
2022-09-15T12:40:35.294Z,86.47
2022-09-15T12:43:05.962Z,84.45
2022-09-15T12:45:36.219Z,83.77
2022-09-15T12:48:08.392Z,84.96
2022-09-15T12:50:37.783Z,85.29
2022-09-15T12:53:14.112Z,84.54
2022-09-15T12:55:49.718Z,85.28
2022-09-15T12:58:19.741Z,84.65
2022-09-15T13:01:14.240Z,84.44
2022-09-15T13:04:14.193Z,85.20
2022-09-15T13:07:21.790Z,86.59
2022-09-15T13:10:00.385Z,86.31
2022-09-15T13:12:32.078Z,85.52
2022-09-15T13:15:03.130Z,86.23
2022-09-15T13:17:31.665Z,86.02
2022-09-15T13:20:02.015Z,85.81
2022-09-15T13:22:32.124Z,85.38
2022-09-15T13:25:05.866Z,85.07
2022-09-15T13:27:37.325Z,85.27
2022-09-15T13:30:14.991Z,86.16
2022-09-15T13:32:46.821Z,85.75
2022-09-15T13:35:50.620Z,84.60
2022-09-15T13:38:39.967Z,84.53
2022-09-15T13:41:57.841Z,84.11
2022-09-15T13:44:50.963Z,85.31
2022-09-15T13:47:28.464Z,84.51
2022-09-15T13:50:04.183Z,83.70
2022-09-15T13:52:43.513Z,83.75
2022-09-15T13:55:19.606Z,83.78
2022-09-15T14:00:48.358Z,82.27
2022-09-15T14:03:20.013Z,80.68
2022-09-15T14:05:47.976Z,80.31
2022-09-15T14:08:17.244Z,80.86
2022-09-15T14:10:48.100Z,81.03
2022-09-15T14:13:19.193Z,80.73
2022-09-15T14:15:58.655Z,79.29
2022-09-15T14:18:26.552Z,79.17
2022-09-15T14:21:02.942Z,78.13
2022-09-15T14:23:31.228Z,76.94
2022-09-15T14:26:01.544Z,76.38
2022-09-15T14:28:33.229Z,77.02
2022-09-15T14:31:02.244Z,75.27
2022-09-15T14:33:37.885Z,75.62
2022-09-15T14:36:14.321Z,73.41
2022-09-15T14:38:42.231Z,74.02
2022-09-15T14:41:20.161Z,74.80
2022-09-15T14:43:49.798Z,73.42
2022-09-15T14:46:20.779Z,73.71
2022-09-15T14:48:48.876Z,74.13
2022-09-15T14:51:20.569Z,72.25
2022-09-15T14:53:49.769Z,72.80
2022-09-15T14:56:20.010Z,71.47
2022-09-15T14:58:51.939Z,72.61
2022-09-15T15:01:24.701Z,72.62
2022-09-15T15:03:58.097Z,72.64
2022-09-15T15:06:31.784Z,72.59
2022-09-15T15:09:03.207Z,72.45
2022-09-15T15:11:32.433Z,73.44
2022-09-15T15:14:01.803Z,72.62
2022-09-15T15:16:32.565Z,71.78
2022-09-15T15:19:00.488Z,73.00
2022-09-15T15:21:39.960Z,73.57
2022-09-15T15:24:25.597Z,73.30
2022-09-15T15:26:53.543Z,73.66
2022-09-15T15:29:43.081Z,74.36
2022-09-15T15:32:16.213Z,75.26
2022-09-15T15:34:51.752Z,75.20
2022-09-15T15:37:26.423Z,74.77
2022-09-15T15:39:55.207Z,73.56
2022-09-15T15:42:23.104Z,73.71
2022-09-15T15:45:03.747Z,72.18
2022-09-15T15:47:38.404Z,72.66
2022-09-15T15:50:13.722Z,71.52
2022-09-15T15:52:42.395Z,69.54
2022-09-15T15:55:14.825Z,69.18
2022-09-15T15:57:43.083Z,69.25
2022-09-15T16:00:21.719Z,68.62
2022-09-15T16:02:50.462Z,70.49
2022-09-15T16:05:19.177Z,71.25
2022-09-15T16:07:51.061Z,71.31
2022-09-15T16:10:21.036Z,70.83
2022-09-15T16:12:49.111Z,70.63
2022-09-15T16:15:20.277Z,71.10
2022-09-15T16:17:49.949Z,70.13
2022-09-15T16:20:19.871Z,70.35
2022-09-15T16:22:48.116Z,69.71
2022-09-15T16:25:18.921Z,70.61
2022-09-15T16:27:46.994Z,70.88
2022-09-15T16:30:14.925Z,71.13
2022-09-15T16:32:44.087Z,72.22
2022-09-15T16:35:22.537Z,72.76
2022-09-15T16:37:50.342Z,71.96
2022-09-15T16:40:18.471Z,71.48
2022-09-15T16:42:46.377Z,71.98
2022-09-15T16:45:20.563Z,72.70
2022-09-15T16:47:49.817Z,72.11
2022-09-15T16:50:18.008Z,72.30
2022-09-15T16:52:46.186Z,73.23
2022-09-15T16:55:20.331Z,73.81
2022-09-15T16:57:48.145Z,73.93
2022-09-15T17:00:16.833Z,73.51
2022-09-15T17:02:44.634Z,73.61
2022-09-15T17:05:19.573Z,74.28
2022-09-15T17:07:47.420Z,73.44
2022-09-15T17:10:18.354Z,73.31
2022-09-15T17:12:46.497Z,73.84
2022-09-15T17:15:26.513Z,74.07
2022-09-15T17:17:54.451Z,73.87
2022-09-15T17:20:24.103Z,73.92
2022-09-15T17:22:52.781Z,73.79
2022-09-15T17:25:29.669Z,73.89
2022-09-15T17:27:58.396Z,74.33
2022-09-15T17:30:28.754Z,74.66
2022-09-15T17:33:03.971Z,74.67
2022-09-15T17:35:36.309Z,75.13
2022-09-15T17:38:05.343Z,75.38
2022-09-15T17:40:33.786Z,75.19
2022-09-15T17:43:01.846Z,75.48
2022-09-15T17:45:33.075Z,75.79
2022-09-15T17:48:01.523Z,75.91
2022-09-15T17:50:30.782Z,76.08
2022-09-15T17:53:00.671Z,76.60
2022-09-15T17:55:30.433Z,76.96
2022-09-15T17:57:59.851Z,77.00
2022-09-15T18:00:29.695Z,76.84
2022-09-15T18:03:00.872Z,76.89
2022-09-15T18:05:30.856Z,76.92
2022-09-15T18:08:02.636Z,76.93
2022-09-15T18:10:31.460Z,77.08
2022-09-15T18:12:59.284Z,77.49
2022-09-15T18:15:29.544Z,77.73
2022-09-15T18:17:59.063Z,77.68
2022-09-15T18:20:28.978Z,78.15
2022-09-15T18:22:57.472Z,78.34
2022-09-15T18:25:30.801Z,78.52
2022-09-15T18:27:59.127Z,78.92
2022-09-15T18:30:28.332Z,78.89
2022-09-15T18:32:56.582Z,78.60
2022-09-15T18:35:25.235Z,78.52
2022-09-15T18:37:56.572Z,78.66
2022-09-15T18:40:25.924Z,78.87
2022-09-15T18:42:54.161Z,79.22
2022-09-15T18:45:22.012Z,79.42
2022-09-15T18:47:50.383Z,79.62
2022-09-15T18:50:19.870Z,79.75
2022-09-15T18:52:48.315Z,79.94
2022-09-15T18:55:18.989Z,80.23
2022-09-15T18:57:48.244Z,80.00
2022-09-15T19:00:18.046Z,80.91
2022-09-15T19:02:46.129Z,80.62
2022-09-15T19:05:15.626Z,81.08
2022-09-15T19:07:44.212Z,81.28
2022-09-15T19:10:12.869Z,81.80
2022-09-15T19:12:40.911Z,81.98
2022-09-15T19:15:12.203Z,81.81
2022-09-15T19:17:40.580Z,82.37
2022-09-15T19:20:09.957Z,82.44
2022-09-15T19:22:38.337Z,82.77
2022-09-15T19:25:07.729Z,82.75
2022-09-15T19:27:36.229Z,82.91
2022-09-15T19:30:04.437Z,82.03
2022-09-15T19:32:34.115Z,82.21
2022-09-15T19:35:02.517Z,81.91
2022-09-15T19:37:30.636Z,81.82
2022-09-15T19:39:58.746Z,82.01
2022-09-15T19:42:26.776Z,82.38
2022-09-15T19:44:55.387Z,82.67
2022-09-15T19:47:23.297Z,82.83
2022-09-15T19:49:53.760Z,82.56
2022-09-15T19:52:21.740Z,82.71
2022-09-15T19:54:49.752Z,82.70
2022-09-15T19:57:17.697Z,82.63
2022-09-15T19:59:45.845Z,83.11
2022-09-15T20:02:14.050Z,82.93
2022-09-15T20:04:42.161Z,82.93
2022-09-15T20:07:12.496Z,82.92
2022-09-15T20:09:40.715Z,83.12
2022-09-15T20:12:08.707Z,83.40
2022-09-15T20:14:36.802Z,83.23
2022-09-15T20:17:05.275Z,83.40
2022-09-15T20:19:33.410Z,83.35
2022-09-15T20:22:04.485Z,83.71
2022-09-15T20:24:33.817Z,83.62
2022-09-15T20:27:01.667Z,83.06
2022-09-15T20:29:29.804Z,82.93
2022-09-15T20:31:57.927Z,83.04
2022-09-15T20:34:25.776Z,83.03
2022-09-15T20:36:53.619Z,82.89
2022-09-15T20:39:23.334Z,83.14
2022-09-15T20:41:55.516Z,82.60
2022-09-15T20:44:23.509Z,82.67
2022-09-15T20:46:52.730Z,83.00
2022-09-15T20:49:20.796Z,83.31
2022-09-15T20:51:50.641Z,83.17
2022-09-15T20:54:18.725Z,83.21
2022-09-15T20:56:47.558Z,83.37
2022-09-15T20:59:17.041Z,83.38
2022-09-15T21:01:45.082Z,83.29
2022-09-15T21:04:13.119Z,83.58
2022-09-15T21:06:41.006Z,83.96
2022-09-15T21:09:09.332Z,83.89
2022-09-15T21:11:37.381Z,84.16
2022-09-15T21:14:05.775Z,83.98
2022-09-15T21:16:35.231Z,83.95
2022-09-15T21:19:03.495Z,83.82
2022-09-15T21:21:33.650Z,84.24
2022-09-15T21:24:03.996Z,84.05
2022-09-15T21:26:33.625Z,83.87
2022-09-15T21:29:01.754Z,83.70
2022-09-15T21:31:31.667Z,83.68
2022-09-15T21:34:01.477Z,83.55
2022-09-15T21:36:30.509Z,83.69
2022-09-15T21:38:59.554Z,83.42
2022-09-15T21:41:29.087Z,83.39
2022-09-15T21:43:58.380Z,83.04
2022-09-15T21:46:28.411Z,82.77
2022-09-15T21:48:57.580Z,82.71
2022-09-15T21:51:28.598Z,82.89
2022-09-15T21:53:57.636Z,82.87
2022-09-15T21:56:27.386Z,82.92
2022-09-15T21:58:55.768Z,82.52
2022-09-15T22:01:26.773Z,81.86
2022-09-15T22:03:56.093Z,82.31
2022-09-15T22:06:27.722Z,82.79
2022-09-15T22:08:56.098Z,83.25
2022-09-15T22:11:24.119Z,82.02
2022-09-15T22:13:52.325Z,82.66
2022-09-15T22:16:21.370Z,82.71
2022-09-15T22:18:50.292Z,82.67
2022-09-15T22:21:19.687Z,82.43
2022-09-15T22:23:50.848Z,82.85
2022-09-15T22:26:20.018Z,82.70
2022-09-15T22:28:47.991Z,82.71
2022-09-15T22:31:17.437Z,82.36
2022-09-15T22:33:45.363Z,82.45
2022-09-15T22:36:13.961Z,82.27
2022-09-15T22:38:42.680Z,82.33
2022-09-15T22:41:16.307Z,82.11
2022-09-15T22:43:47.955Z,82.15
2022-09-15T22:46:16.630Z,82.08
2022-09-15T22:48:44.797Z,82.09
2022-09-15T22:51:13.313Z,81.68
2022-09-15T22:53:41.408Z,81.72
2022-09-15T22:56:15.107Z,81.68
2022-09-15T22:58:44.574Z,81.86
2022-09-15T23:01:14.270Z,81.66
2022-09-15T23:03:43.754Z,81.45
2022-09-15T23:06:11.933Z,80.53
2022-09-15T23:08:39.779Z,81.14
2022-09-15T23:11:10.052Z,81.21
2022-09-15T23:13:40.421Z,81.40
2022-09-15T23:16:09.168Z,81.75
2022-09-15T23:18:37.563Z,81.91
2022-09-15T23:21:08.056Z,81.96
2022-09-15T23:23:37.099Z,82.02
2022-09-15T23:26:05.791Z,82.05
2022-09-15T23:28:34.169Z,81.92
2022-09-15T23:31:04.327Z,82.24
2022-09-15T23:33:32.571Z,82.15
2022-09-15T23:36:00.701Z,82.16
2022-09-15T23:38:28.954Z,81.83
2022-09-15T23:40:57.002Z,82.02
2022-09-15T23:43:25.032Z,82.07
2022-09-15T23:45:53.627Z,82.06
2022-09-15T23:48:23.606Z,82.00
2022-09-15T23:50:51.794Z,81.62
2022-09-15T23:53:20.282Z,81.63
2022-09-15T23:55:48.386Z,82.15
2022-09-15T23:58:16.296Z,82.04
